Pagina principale
METAR-TAF:

METAR-TAF

Aeroporti :

Aeroporto di Ostenda

Ostenda, Belgio

latitudine: 51-12N, longitudine: 002-52E, altezza: 4 m

Osservazione

Il bollettino è stato emesso 26 minuti fa, alle 17:20 UTC
Vento 16 kt da nord/nord-est
Temperature 17°C
Umidità 68%
Pressione 1021 hPa
Visibilità 10 km o più
nessuna nube inferiore a 1500 m e nessun cumulonembo

METAR: EBOS 311720Z 03016KT CAVOK 17/11 Q1021 NOSIG

Ora: 19:46 (17:46 UTC)

Previsione

Il bollettino è stato emesso 36 minuti fa, alle 17:10 UTC
Previsione valida dal 31 alle 18 UTC al 01 alle 24 UTC
Vento 9 kt da nord/nord-est
Visibilità 10 km o più
nessuna nube inferiore a 1500 m e nessun cumulonembo

TAF: EBOS 311710Z 3118/0124 03009KT CAVOK

Osservazioni e previsioni meteorologiche di più di 4000 aeroporti (messaggi METAR e TAF).

Le stazioni disponibili sono rappresentate dai dischi gialli e rossi sulla carta.

Puntare il mouse per vedere il nome della stazione.

Clicca sopra per visualizzare le osservazioni e previsioni meteorologiche.

Per cambiare la mappa : fare clic sui pulsanti verdi con una croce nera per ingrandire, il pulsante verde con un trattino per diminuire, o sulla freccia verde per le mappe adiacenti.


METAR-TAF: